createdAt,value
2023-05-11T00:00:16.550Z,13.30
2023-05-11T00:10:42.371Z,8.00
2023-05-11T00:15:45.254Z,15.80
2023-05-11T00:20:48.114Z,14.00
2023-05-11T00:25:50.867Z,14.90
2023-05-11T00:30:57.608Z,13.10
2023-05-11T00:36:00.922Z,14.40
2023-05-11T00:46:06.928Z,10.50
2023-05-11T00:56:13.645Z,14.20
2023-05-11T01:01:18.213Z,15.30
2023-05-11T01:06:57.751Z,12.80
2023-05-11T01:12:11.950Z,14.50
2023-05-11T01:17:34.482Z,17.50
2023-05-11T01:22:55.734Z,11.90
2023-05-11T01:28:30.836Z,14.00
2023-05-11T01:33:37.386Z,12.10
2023-05-11T01:38:43.355Z,16.40
2023-05-11T01:43:53.719Z,15.70
2023-05-11T01:48:59.618Z,14.60
2023-05-11T01:54:04.071Z,15.70
2023-05-11T01:59:07.308Z,16.00
2023-05-11T02:04:12.041Z,13.50
2023-05-11T02:09:16.950Z,16.70
2023-05-11T02:14:22.919Z,16.00
2023-05-11T02:19:26.856Z,14.50
2023-05-11T02:24:31.482Z,14.50
2023-05-11T02:29:34.319Z,15.90
2023-05-11T02:34:43.496Z,16.70
2023-05-11T02:39:53.110Z,11.40
2023-05-11T02:45:06.043Z,12.90
2023-05-11T02:50:10.137Z,12.70
2023-05-11T02:55:16.433Z,10.60
2023-05-11T03:00:19.793Z,12.90
2023-05-11T03:05:24.359Z,13.20
2023-05-11T03:10:29.156Z,14.40
2023-05-11T03:15:33.181Z,11.30
2023-05-11T03:20:40.648Z,14.30
2023-05-11T03:25:44.353Z,15.60
2023-05-11T03:30:49.466Z,12.00
2023-05-11T03:35:54.438Z,12.90
2023-05-11T03:40:58.670Z,13.20
2023-05-11T03:46:03.975Z,14.20
2023-05-11T03:51:07.047Z,13.90
2023-05-11T03:56:09.858Z,13.40
2023-05-11T04:01:13.508Z,16.20
2023-05-11T04:06:17.827Z,12.60
2023-05-11T04:11:22.225Z,20.40
2023-05-11T04:16:25.087Z,26.20
2023-05-11T04:21:27.932Z,17.80
2023-05-11T04:26:30.751Z,20.90
2023-05-11T04:31:34.055Z,11.50
2023-05-11T04:36:36.927Z,13.60
2023-05-11T04:41:39.793Z,15.00
2023-05-11T04:46:42.855Z,13.50
2023-05-11T04:51:45.962Z,11.80
2023-05-11T04:56:48.801Z,12.30
2023-05-11T05:01:51.630Z,12.20
2023-05-11T05:06:54.544Z,14.10
2023-05-11T05:11:57.394Z,15.30
2023-05-11T05:17:01.623Z,12.30
2023-05-11T05:22:05.459Z,15.80
2023-05-11T05:27:08.240Z,12.90
2023-05-11T05:32:11.058Z,14.30
2023-05-11T05:37:14.026Z,9.90
2023-05-11T05:42:16.938Z,12.60
2023-05-11T05:47:19.804Z,9.50
2023-05-11T05:52:22.833Z,11.50
2023-05-11T05:57:30.779Z,9.60
2023-05-11T06:02:34.871Z,9.40
2023-05-11T06:07:40.895Z,9.80
2023-05-11T06:12:46.286Z,7.80
2023-05-11T06:17:49.878Z,8.60
2023-05-11T06:22:54.527Z,14.70
2023-05-11T06:27:58.452Z,8.90
2023-05-11T06:33:02.714Z,10.70
2023-05-11T06:38:07.346Z,9.30
2023-05-11T06:43:11.639Z,9.10
2023-05-11T06:53:18.160Z,6.90
2023-05-11T06:58:21.530Z,20.40
2023-05-11T07:03:24.543Z,8.90
2023-05-11T07:08:27.810Z,8.40
2023-05-11T07:13:30.889Z,9.30
2023-05-11T07:18:33.729Z,8.60
2023-05-11T07:28:39.551Z,6.90
2023-05-11T07:33:42.454Z,9.30
2023-05-11T07:38:45.408Z,9.50
2023-05-11T07:43:48.490Z,10.30
2023-05-11T07:48:57.397Z,10.40
2023-05-11T07:54:06.687Z,7.20
2023-05-11T07:59:09.563Z,5.50
2023-05-11T08:04:12.405Z,5.40
2023-05-11T08:14:18.686Z,10.20
2023-05-11T08:19:22.602Z,8.50
2023-05-11T08:24:26.360Z,10.50
2023-05-11T08:29:29.671Z,10.20
2023-05-11T08:34:32.971Z,12.10
2023-05-11T08:39:46.787Z,11.60
2023-05-11T08:44:55.490Z,8.00
2023-05-11T08:49:58.799Z,6.40
2023-05-11T08:55:01.632Z,5.80
2023-05-11T09:00:05.864Z,10.80
2023-05-11T09:05:09.868Z,8.10
2023-05-11T09:10:14.107Z,9.00
2023-05-11T09:15:17.173Z,10.90
2023-05-11T09:20:31.591Z,7.60
2023-05-11T09:25:40.895Z,8.80
2023-05-11T09:30:46.770Z,6.50
2023-05-11T09:35:53.214Z,27.40
2023-05-11T09:40:56.766Z,21.00
2023-05-11T09:46:07.577Z,13.30
2023-05-11T09:51:10.950Z,34.00
2023-05-11T09:56:15.738Z,17.30
2023-05-11T10:01:29.531Z,53.80
2023-05-11T10:06:55.619Z,10.70
2023-05-11T10:11:59.897Z,16.50
2023-05-11T10:17:04.277Z,8.70
2023-05-11T10:22:07.812Z,8.60
2023-05-11T10:27:12.332Z,15.70
2023-05-11T10:32:17.477Z,8.80
2023-05-11T10:37:21.979Z,7.70
2023-05-11T10:42:43.850Z,10.90
2023-05-11T10:48:07.146Z,8.80
2023-05-11T10:53:50.578Z,6.80
2023-05-11T10:58:59.594Z,6.30
2023-05-11T11:04:06.705Z,15.10
2023-05-11T11:09:15.695Z,6.30
2023-05-11T11:14:19.380Z,11.60
2023-05-11T11:19:31.477Z,11.40
2023-05-11T11:24:37.339Z,10.00
2023-05-11T11:29:40.754Z,10.10
2023-05-11T11:34:44.245Z,6.20
2023-05-11T11:39:50.384Z,7.20
2023-05-11T11:45:17.117Z,35.50
2023-05-11T11:50:28.383Z,9.70
2023-05-11T11:55:49.162Z,8.50
2023-05-11T12:00:52.618Z,12.70
2023-05-11T12:06:01.356Z,7.40
2023-05-11T12:11:05.497Z,13.50
2023-05-11T12:16:08.886Z,9.80
2023-05-11T12:21:26.271Z,6.90
2023-05-11T12:26:30.626Z,6.80
2023-05-11T12:31:43.080Z,8.60
2023-05-11T12:36:50.553Z,5.80
2023-05-11T12:41:55.111Z,9.50
2023-05-11T12:46:58.130Z,5.20
2023-05-11T12:52:06.119Z,7.90
2023-05-11T12:57:23.604Z,5.70
2023-05-11T13:02:26.664Z,9.30
2023-05-11T13:07:29.556Z,9.50
2023-05-11T13:12:34.288Z,8.80
2023-05-11T13:17:38.759Z,9.90
2023-05-11T13:22:41.694Z,10.40
2023-05-11T13:27:44.855Z,12.50
2023-05-11T13:32:47.766Z,6.40
2023-05-11T13:37:50.812Z,8.60
2023-05-11T13:42:56.881Z,12.10
2023-05-11T13:47:59.826Z,8.40
2023-05-11T13:53:02.659Z,10.20
2023-05-11T13:58:06.479Z,16.90
2023-05-11T14:03:09.335Z,4.90
2023-05-11T14:08:12.136Z,6.30
2023-05-11T14:13:15.031Z,12.40
2023-05-11T14:18:18.608Z,9.70
2023-05-11T14:23:21.855Z,13.50
2023-05-11T14:28:24.693Z,11.50
2023-05-11T14:33:28.210Z,12.70
2023-05-11T14:38:31.913Z,10.00
2023-05-11T14:43:35.671Z,8.10
2023-05-11T14:48:38.501Z,19.50
2023-05-11T14:53:41.574Z,11.70
2023-05-11T14:58:44.474Z,6.10
2023-05-11T15:03:47.666Z,10.20
2023-05-11T15:08:51.313Z,8.00
2023-05-11T15:13:54.109Z,9.40
2023-05-11T15:18:56.976Z,6.70
2023-05-11T15:24:00.078Z,5.60
2023-05-11T15:29:02.970Z,5.70
2023-05-11T15:34:06.066Z,9.60
2023-05-11T15:39:09.326Z,6.70
2023-05-11T15:44:12.832Z,6.40
2023-05-11T15:49:16.948Z,14.10
2023-05-11T15:54:19.938Z,6.20
2023-05-11T15:59:22.883Z,11.50
2023-05-11T16:04:25.711Z,10.40
2023-05-11T16:09:28.704Z,10.90
2023-05-11T16:14:32.205Z,5.50
2023-05-11T16:19:35.217Z,7.20
2023-05-11T16:24:38.057Z,9.00
2023-05-11T16:29:40.945Z,6.20
2023-05-11T16:34:43.770Z,7.80
2023-05-11T16:39:46.643Z,12.40
2023-05-11T16:44:49.505Z,6.60
2023-05-11T16:49:52.449Z,37.60
2023-05-11T16:54:58.862Z,11.30
2023-05-11T17:00:02.812Z,11.80
2023-05-11T17:05:07.242Z,10.60
2023-05-11T17:10:10.894Z,11.90
2023-05-11T17:15:13.762Z,11.30
2023-05-11T17:20:16.711Z,10.90
2023-05-11T17:25:19.724Z,10.10
2023-05-11T17:30:29.869Z,14.40
2023-05-11T17:35:39.163Z,16.10
2023-05-11T17:40:42.035Z,9.70
2023-05-11T17:45:44.857Z,6.90
2023-05-11T17:50:47.932Z,8.60
2023-05-11T17:55:53.045Z,10.50
2023-05-11T18:00:55.921Z,9.70
2023-05-11T18:05:58.745Z,9.00
2023-05-11T18:11:01.653Z,9.80
2023-05-11T18:16:05.133Z,11.20
2023-05-11T18:21:10.733Z,11.60
2023-05-11T18:26:14.181Z,14.70
2023-05-11T18:31:19.082Z,15.20
2023-05-11T18:36:22.057Z,11.30
2023-05-11T18:41:24.993Z,14.80
2023-05-11T18:51:30.593Z,14.20
2023-05-11T18:56:33.422Z,57.90
2023-05-11T19:01:46.943Z,87.40
2023-05-11T19:06:51.126Z,31.90
2023-05-11T19:11:54.366Z,23.60
2023-05-11T19:16:57.249Z,18.40
2023-05-11T19:22:00.201Z,11.40
2023-05-11T19:27:07.754Z,9.30
2023-05-11T19:32:11.100Z,11.40
2023-05-11T19:42:16.913Z,15.10
2023-05-11T19:47:22.527Z,22.00
2023-05-11T19:52:25.342Z,19.90
2023-05-11T19:57:30.586Z,35.10
2023-05-11T20:02:34.005Z,34.20
2023-05-11T20:07:36.997Z,21.20
2023-05-11T20:12:40.195Z,22.90
2023-05-11T20:22:45.855Z,22.60
2023-05-11T20:27:48.900Z,22.90
2023-05-11T20:37:57.462Z,26.10
2023-05-11T20:43:00.321Z,36.10
2023-05-11T20:48:03.181Z,26.70
2023-05-11T20:53:06.183Z,46.30
2023-05-11T20:58:09.147Z,37.80
2023-05-11T21:03:12.474Z,33.70
2023-05-11T21:08:15.364Z,28.40
2023-05-11T21:13:18.220Z,24.90
2023-05-11T21:18:21.102Z,27.20
2023-05-11T21:23:24.054Z,27.10
2023-05-11T21:28:27.696Z,15.90
2023-05-11T21:33:30.561Z,13.00
2023-05-11T21:38:33.424Z,18.20
2023-05-11T21:43:36.337Z,15.90
2023-05-11T21:48:39.210Z,19.70
2023-05-11T21:53:42.048Z,25.80
2023-05-11T21:58:44.858Z,31.50
2023-05-11T22:03:47.801Z,29.10
2023-05-11T22:08:50.730Z,19.70
2023-05-11T22:13:53.584Z,18.40
2023-05-11T22:18:56.376Z,14.80
2023-05-11T22:23:59.352Z,26.80
2023-05-11T22:29:02.888Z,21.30
2023-05-11T22:34:06.207Z,34.80
2023-05-11T22:44:11.838Z,19.50
2023-05-11T22:49:16.241Z,22.40
2023-05-11T22:54:19.081Z,23.10
2023-05-11T22:59:22.285Z,22.80
2023-05-11T23:04:25.123Z,21.70
2023-05-11T23:09:28.471Z,20.30
2023-05-11T23:19:34.046Z,23.40
2023-05-11T23:24:37.103Z,31.50
2023-05-11T23:29:40.012Z,24.00
2023-05-11T23:34:42.896Z,31.90
2023-05-11T23:39:45.792Z,28.70
2023-05-11T23:44:48.709Z,28.10
2023-05-11T23:49:51.555Z,34.60
2023-05-11T23:54:54.481Z,36.70
2023-05-11T23:59:57.410Z,37.20
